createdAt,value
2022-07-31T11:55:09.654Z,23.52
2022-07-31T11:59:45.133Z,24.34
2022-07-31T12:02:13.347Z,24.74
2022-07-31T12:04:40.597Z,24.88
2022-07-31T12:07:08.641Z,25.01
2022-07-31T12:10:02.075Z,25.21
2022-07-31T12:12:22.921Z,25.37
2022-07-31T12:14:53.852Z,25.25
2022-07-31T12:17:21.854Z,25.11
2022-07-31T12:19:48.627Z,24.96
2022-07-31T12:22:16.141Z,25.00
2022-07-31T12:24:43.137Z,24.85
2022-07-31T12:27:14.767Z,24.79
2022-07-31T12:29:41.303Z,24.97
2022-07-31T12:32:08.008Z,25.00
2022-07-31T12:34:39.394Z,25.07
2022-07-31T12:37:11.928Z,25.09
2022-07-31T12:40:00.102Z,25.15
2022-07-31T12:42:36.482Z,25.40
2022-07-31T12:45:18.128Z,25.58
2022-07-31T12:47:51.323Z,25.75
2022-07-31T12:50:18.702Z,25.65
2022-07-31T12:52:45.301Z,25.51
2022-07-31T12:55:11.809Z,25.45
2022-07-31T12:57:41.733Z,25.30
2022-07-31T13:00:18.472Z,25.23
2022-07-31T13:02:45.227Z,25.06
2022-07-31T13:05:11.882Z,24.91
2022-07-31T13:07:38.400Z,24.77
2022-07-31T13:10:20.467Z,24.58
2022-07-31T13:12:51.994Z,24.64
2022-07-31T13:15:20.048Z,24.79
2022-07-31T13:17:48.218Z,24.88
2022-07-31T13:20:17.134Z,24.81
2022-07-31T13:22:43.642Z,24.77
2022-07-31T13:25:10.161Z,24.69
2022-07-31T13:27:36.744Z,24.73
2022-07-31T13:30:04.421Z,24.75
2022-07-31T13:32:31.888Z,24.79
2022-07-31T13:35:19.626Z,24.92
2022-07-31T13:37:46.404Z,25.10
2022-07-31T13:40:13.636Z,25.32
2022-07-31T13:42:40.220Z,25.39
2022-07-31T13:45:08.582Z,25.27
2022-07-31T13:47:50.629Z,25.45
2022-07-31T13:50:17.726Z,25.49
2022-07-31T13:52:44.240Z,25.53
2022-07-31T13:55:10.829Z,25.45
2022-07-31T13:57:37.278Z,25.34
2022-07-31T14:00:04.223Z,25.35
2022-07-31T14:02:30.753Z,25.20
2022-07-31T14:04:57.349Z,25.06
2022-07-31T14:07:24.105Z,25.04
2022-07-31T14:10:10.602Z,25.17
2022-07-31T14:12:37.126Z,25.31
2022-07-31T14:15:05.026Z,25.66
2022-07-31T14:17:31.549Z,25.62
2022-07-31T14:19:58.939Z,25.53
2022-07-31T14:22:25.654Z,25.56
2022-07-31T14:24:52.249Z,25.67
2022-07-31T14:27:19.388Z,25.71
2022-07-31T14:29:46.652Z,25.83
2022-07-31T14:32:13.267Z,25.93
2022-07-31T14:34:39.837Z,25.95
2022-07-31T14:37:06.740Z,25.72
2022-07-31T14:39:33.587Z,25.80
2022-07-31T14:42:00.262Z,25.65
2022-07-31T14:44:28.849Z,25.48
2022-07-31T14:46:55.948Z,25.38
2022-07-31T14:49:22.475Z,25.34
2022-07-31T14:51:49.017Z,25.44
2022-07-31T14:54:15.527Z,25.49
2022-07-31T14:59:29.610Z,25.51
2022-07-31T15:01:56.262Z,25.40
2022-07-31T15:04:23.245Z,25.30
2022-07-31T15:06:56.057Z,25.26
2022-07-31T15:09:31.258Z,25.13
2022-07-31T15:12:00.122Z,25.12
2022-07-31T15:14:28.794Z,24.78
2022-07-31T15:16:55.348Z,24.32
2022-07-31T15:19:21.915Z,24.09
2022-07-31T15:22:10.056Z,24.22
2022-07-31T15:24:35.295Z,24.18
2022-07-31T15:27:02.022Z,24.05
2022-07-31T15:30:00.693Z,24.19
2022-07-31T15:32:15.145Z,24.32
2022-07-31T15:34:41.647Z,24.40
2022-07-31T15:37:10.559Z,24.51
2022-07-31T15:40:01.465Z,24.70
2022-07-31T15:42:30.049Z,24.81
2022-07-31T15:44:56.552Z,25.01
2022-07-31T15:47:23.010Z,25.00
2022-07-31T15:49:49.678Z,25.21
2022-07-31T15:52:19.223Z,25.31
2022-07-31T15:54:46.373Z,25.25
2022-07-31T15:57:13.587Z,25.26
2022-07-31T15:59:41.286Z,25.16
2022-07-31T16:02:07.779Z,25.20
2022-07-31T16:04:35.013Z,25.24
2022-07-31T16:08:32.409Z,25.38
2022-07-31T16:10:03.355Z,25.67
2022-07-31T16:12:35.989Z,25.46
2022-07-31T16:15:03.196Z,25.37
2022-07-31T16:17:40.443Z,25.28
2022-07-31T16:20:08.823Z,25.33
2022-07-31T16:22:38.216Z,25.31
2022-07-31T16:25:05.919Z,25.32
2022-07-31T16:27:32.545Z,25.23
2022-07-31T16:30:01.861Z,25.20
2022-07-31T16:32:29.207Z,25.12
2022-07-31T16:35:00.176Z,25.08
2022-07-31T16:37:52.059Z,25.10
2022-07-31T16:40:28.682Z,25.02
2022-07-31T16:43:50.672Z,25.18
2022-07-31T16:45:52.541Z,25.01
2022-07-31T16:48:19.370Z,24.99
2022-07-31T16:50:53.031Z,24.90
2022-07-31T16:54:10.715Z,24.74
2022-07-31T16:56:15.217Z,24.79
2022-07-31T16:58:43.585Z,24.83
2022-07-31T17:01:57.907Z,24.91
2022-07-31T17:04:24.902Z,25.01
2022-07-31T17:06:51.542Z,25.19
2022-07-31T17:09:18.734Z,25.18
2022-07-31T17:11:48.015Z,25.32
2022-07-31T17:14:15.615Z,25.39
2022-07-31T17:16:46.837Z,25.30
2022-07-31T17:19:14.639Z,25.29
2022-07-31T17:21:44.324Z,25.10
2022-07-31T17:24:15.883Z,24.88
2022-07-31T17:26:43.558Z,24.91
2022-07-31T17:29:10.111Z,24.82
2022-07-31T17:31:36.591Z,24.79
2022-07-31T17:34:08.715Z,24.76
2022-07-31T17:36:36.333Z,24.66
2022-07-31T17:39:03.460Z,24.68
2022-07-31T17:41:30.129Z,24.60
2022-07-31T17:43:56.877Z,24.60
2022-07-31T17:46:34.591Z,24.58
2022-07-31T17:49:05.745Z,24.44
2022-07-31T17:51:33.033Z,24.44
2022-07-31T17:53:59.936Z,24.36
2022-07-31T17:56:27.093Z,24.32
2022-07-31T17:58:53.938Z,24.19
2022-07-31T18:01:23.337Z,24.17
2022-07-31T18:03:52.304Z,24.17
2022-07-31T18:06:19.153Z,24.07
2022-07-31T18:08:47.520Z,24.03
2022-07-31T18:11:14.138Z,23.94
2022-07-31T18:13:47.983Z,23.88
2022-07-31T18:16:15.965Z,24.01
2022-07-31T18:18:42.516Z,24.00
2022-07-31T18:21:09.384Z,23.98
2022-07-31T18:23:35.927Z,23.96
2022-07-31T18:26:03.782Z,23.89
2022-07-31T18:28:32.027Z,23.79
2022-07-31T18:31:01.591Z,23.67
2022-07-31T18:33:28.394Z,23.71
2022-07-31T18:35:55.855Z,23.71
2022-07-31T18:38:22.532Z,23.70
2022-07-31T18:40:49.223Z,23.67
2022-07-31T18:43:15.861Z,23.57
2022-07-31T18:45:43.043Z,23.56
2022-07-31T18:48:09.606Z,23.57
2022-07-31T18:51:01.371Z,23.45
2022-07-31T18:53:22.647Z,23.48
2022-07-31T18:55:49.170Z,23.38
2022-07-31T18:58:15.880Z,23.43
2022-07-31T19:00:42.486Z,23.37
2022-07-31T19:03:09.809Z,23.35
2022-07-31T19:05:36.306Z,23.34
2022-07-31T19:08:03.823Z,23.30
2022-07-31T19:10:31.120Z,23.23
2022-07-31T19:12:58.177Z,23.23
2022-07-31T19:15:24.704Z,23.23
2022-07-31T19:17:51.282Z,23.20
2022-07-31T19:20:41.365Z,23.16
2022-07-31T19:23:06.577Z,23.06
2022-07-31T19:25:59.563Z,23.07
2022-07-31T19:28:27.220Z,22.96
2022-07-31T19:30:54.083Z,22.85
2022-07-31T19:33:20.957Z,22.89
2022-07-31T19:35:58.464Z,22.78
2022-07-31T19:38:27.470Z,22.84
2022-07-31T19:40:54.496Z,22.84
2022-07-31T19:43:21.130Z,22.78
2022-07-31T19:46:09.416Z,22.72
2022-07-31T19:48:36.402Z,22.72
2022-07-31T19:51:03.169Z,22.67
2022-07-31T19:53:30.285Z,22.58
2022-07-31T19:55:57.034Z,22.46
2022-07-31T19:58:23.640Z,22.50
2022-07-31T20:00:50.385Z,22.46
2022-07-31T20:03:17.127Z,22.47
2022-07-31T20:05:43.720Z,22.45
2022-07-31T20:08:10.457Z,22.46
2022-07-31T20:10:37.085Z,22.46
2022-07-31T20:13:03.663Z,22.40
2022-07-31T20:15:50.634Z,22.46
2022-07-31T20:18:26.642Z,22.49
2022-07-31T20:20:56.874Z,22.55
2022-07-31T20:23:23.669Z,22.53
2022-07-31T20:25:50.272Z,22.54
2022-07-31T20:28:16.857Z,22.44
2022-07-31T20:30:43.387Z,22.36
2022-07-31T20:33:11.331Z,22.33
2022-07-31T20:35:49.001Z,22.31
2022-07-31T20:38:17.898Z,22.30
2022-07-31T20:40:52.922Z,22.24
2022-07-31T20:43:21.220Z,22.22
2022-07-31T20:45:47.799Z,22.23
2022-07-31T20:48:16.135Z,22.21
2022-07-31T20:50:42.614Z,22.17
2022-07-31T20:53:10.818Z,22.15
2022-07-31T20:55:37.308Z,22.15
2022-07-31T20:58:03.743Z,22.20
2022-07-31T21:00:32.437Z,22.12
2022-07-31T21:02:59.347Z,22.18
2022-07-31T21:05:29.305Z,22.23
2022-07-31T21:07:56.674Z,22.20
2022-07-31T21:10:28.183Z,22.17
2022-07-31T21:12:56.244Z,22.12
2022-07-31T21:15:40.642Z,22.11
2022-07-31T21:18:08.198Z,22.14
2022-07-31T21:20:51.383Z,22.14
2022-07-31T21:23:21.042Z,22.09
2022-07-31T21:25:47.781Z,22.05
2022-07-31T21:28:14.517Z,22.17
2022-07-31T21:30:41.081Z,22.16
2022-07-31T21:33:08.725Z,22.12
2022-07-31T21:35:36.368Z,22.08
2022-07-31T21:38:04.786Z,22.09
2022-07-31T21:40:33.896Z,22.04
2022-07-31T21:43:03.691Z,22.01
2022-07-31T21:45:50.417Z,21.92
2022-07-31T21:48:22.558Z,21.92
2022-07-31T21:50:49.187Z,21.92
2022-07-31T21:53:15.754Z,21.91
2022-07-31T21:55:42.358Z,21.82
2022-07-31T21:58:09.428Z,21.82
2022-07-31T22:00:36.837Z,21.81
2022-07-31T22:03:03.850Z,21.81
2022-07-31T22:05:49.564Z,21.85
2022-07-31T22:08:16.185Z,21.84
2022-07-31T22:10:42.788Z,21.76
2022-07-31T22:13:09.235Z,21.74
2022-07-31T22:15:51.323Z,21.70
2022-07-31T22:18:22.478Z,21.67
2022-07-31T22:20:49.238Z,21.67
2022-07-31T22:23:16.081Z,21.63
2022-07-31T22:25:42.742Z,21.58
2022-07-31T22:28:09.474Z,21.52
2022-07-31T22:30:36.083Z,21.45
2022-07-31T22:33:03.040Z,21.40
2022-07-31T22:35:30.537Z,21.36
2022-07-31T22:37:57.125Z,21.35
2022-07-31T22:40:24.605Z,21.32
2022-07-31T22:42:57.561Z,21.27
2022-07-31T22:45:25.046Z,21.25
2022-07-31T22:47:51.746Z,21.30
2022-07-31T22:50:18.476Z,21.26
2022-07-31T22:52:45.026Z,21.24
2022-07-31T22:55:12.004Z,21.23
2022-07-31T22:57:40.845Z,21.24
2022-07-31T23:00:09.644Z,21.22
2022-07-31T23:02:36.680Z,21.21
2022-07-31T23:05:03.877Z,21.15
2022-07-31T23:07:30.311Z,21.14
2022-07-31T23:09:56.954Z,21.18
2022-07-31T23:12:29.367Z,21.19
2022-07-31T23:14:56.206Z,21.16
2022-07-31T23:17:23.618Z,21.12
2022-07-31T23:19:53.669Z,21.08
2022-07-31T23:22:33.209Z,21.09
2022-07-31T23:25:01.967Z,21.02
2022-07-31T23:27:28.506Z,21.02
2022-07-31T23:29:55.100Z,21.01
2022-07-31T23:32:21.620Z,21.02
2022-07-31T23:34:48.208Z,20.98
2022-07-31T23:37:14.686Z,20.95
2022-07-31T23:39:41.285Z,20.90
2022-07-31T23:42:26.249Z,20.88
2022-07-31T23:44:52.922Z,20.83
2022-07-31T23:47:19.506Z,20.81
2022-07-31T23:49:46.441Z,20.76
2022-07-31T23:52:13.032Z,20.72
2022-07-31T23:54:39.605Z,20.70
2022-07-31T23:57:06.124Z,20.70
2022-07-31T23:59:32.709Z,20.65
